createdAt,value
2019-04-21T00:00:35.577Z,51.10
2019-04-21T00:03:11.477Z,50.90
2019-04-21T00:06:00.171Z,51.00
2019-04-21T00:08:33.560Z,50.90
2019-04-21T00:11:02.752Z,50.90
2019-04-21T00:13:25.332Z,50.90
2019-04-21T00:15:48.811Z,51.00
2019-04-21T00:18:40.826Z,51.40
2019-04-21T00:21:14.886Z,50.80
2019-04-21T00:23:59.057Z,50.80
2019-04-21T00:26:29.079Z,50.90
2019-04-21T00:29:04.027Z,50.80
2019-04-21T00:31:28.329Z,50.90
2019-04-21T00:33:46.318Z,50.80
2019-04-21T00:36:21.972Z,50.70
2019-04-21T00:39:17.100Z,50.90
2019-04-21T00:41:38.082Z,50.70
2019-04-21T00:44:00.724Z,50.70
2019-04-21T00:46:37.245Z,50.70
2019-04-21T00:49:05.954Z,50.70
2019-04-21T00:51:54.129Z,50.70
2019-04-21T00:54:29.575Z,50.70
2019-04-21T00:56:57.912Z,50.70
2019-04-21T00:59:25.936Z,50.70
2019-04-21T01:01:53.877Z,50.70
2019-04-21T01:04:33.862Z,50.60
2019-04-21T01:07:01.630Z,50.70
2019-04-21T01:09:29.076Z,50.60
2019-04-21T01:12:03.820Z,50.60
2019-04-21T01:14:45.309Z,50.50
2019-04-21T01:17:15.749Z,50.60
2019-04-21T01:19:38.583Z,50.60
2019-04-21T01:21:48.453Z,50.50
2019-04-21T01:24:25.941Z,50.60
2019-04-21T01:27:02.276Z,50.50
2019-04-21T01:29:42.812Z,50.60
2019-04-21T01:32:19.625Z,50.60
2019-04-21T01:34:45.620Z,50.60
2019-04-21T01:37:10.123Z,50.60
2019-04-21T01:39:57.179Z,50.50
2019-04-21T01:42:19.115Z,50.40
2019-04-21T01:44:53.603Z,50.60
2019-04-21T01:47:17.357Z,50.50
2019-04-21T01:49:43.142Z,50.40
2019-04-21T01:52:37.272Z,50.50
2019-04-21T01:55:12.731Z,50.50
2019-04-21T01:57:57.588Z,50.40
2019-04-21T02:00:40.819Z,51.00
2019-04-21T02:03:37.386Z,50.40
2019-04-21T02:06:14.900Z,50.50
2019-04-21T02:08:34.589Z,50.40
2019-04-21T02:11:11.245Z,50.40
2019-04-21T02:13:46.846Z,50.40
2019-04-21T02:16:12.457Z,50.40
2019-04-21T02:18:39.070Z,50.50
2019-04-21T02:21:00.109Z,50.50
2019-04-21T02:24:05.710Z,50.40
2019-04-21T02:26:16.446Z,50.50
2019-04-21T02:28:56.512Z,50.50
2019-04-21T02:33:58.596Z,50.50
2019-04-21T02:39:13.253Z,50.40
2019-04-21T02:44:08.291Z,50.40
2019-04-21T02:46:38.170Z,50.50
2019-04-21T02:49:11.100Z,50.50
2019-04-21T02:56:53.448Z,50.50
2019-04-21T03:02:29.045Z,50.50
2019-04-21T03:05:01.781Z,50.50
2019-04-21T03:07:31.904Z,50.50
2019-04-21T03:10:12.144Z,50.50
2019-04-21T03:12:40.435Z,50.60
2019-04-21T03:15:18.164Z,50.50
2019-04-21T03:20:17.198Z,50.50
2019-04-21T03:22:46.303Z,50.60
2019-04-21T03:25:26.708Z,50.50
2019-04-21T03:30:29.307Z,50.50
2019-04-21T03:36:05.511Z,50.50
2019-04-21T03:37:52.908Z,50.40
2019-04-21T03:40:22.404Z,50.40
2019-04-21T03:42:59.823Z,50.40
2019-04-21T03:45:32.647Z,50.50
2019-04-21T03:48:05.226Z,50.40
2019-04-21T03:50:33.770Z,50.50
2019-04-21T03:53:03.453Z,50.50
2019-04-21T04:09:09.243Z,50.50
2019-04-21T04:11:38.141Z,50.50
2019-04-21T04:14:12.947Z,50.50
2019-04-21T04:16:50.326Z,50.50
2019-04-21T04:19:05.866Z,50.60
2019-04-21T04:21:47.722Z,50.40
2019-04-21T04:24:13.693Z,50.60
2019-04-21T04:34:21.845Z,50.50
2019-04-21T04:40:03.589Z,50.50
2019-04-21T04:45:15.057Z,50.60
2019-04-21T04:47:54.677Z,50.50
2019-04-21T04:50:25.702Z,50.50
2019-04-21T04:55:06.934Z,50.60
2019-04-21T04:57:55.351Z,50.50
2019-04-21T05:00:19.789Z,50.50
2019-04-21T05:02:40.251Z,50.50
2019-04-21T05:05:19.504Z,50.60
2019-04-21T05:07:49.970Z,50.50
2019-04-21T05:10:25.261Z,50.50
2019-04-21T05:12:43.800Z,50.50
2019-04-21T05:15:16.487Z,50.50
2019-04-21T05:20:15.785Z,50.50
2019-04-21T05:22:50.354Z,50.50
2019-04-21T05:25:13.436Z,50.60
2019-04-21T05:27:45.173Z,50.50
2019-04-21T05:30:28.564Z,50.60
2019-04-21T05:33:19.014Z,50.60
2019-04-21T05:36:04.730Z,50.60
2019-04-21T05:38:53.100Z,50.60
2019-04-21T05:41:24.575Z,50.70
2019-04-21T05:44:01.493Z,50.70
2019-04-21T05:46:35.638Z,50.70
2019-04-21T05:49:02.897Z,51.00
2019-04-21T05:51:37.221Z,51.10
2019-04-21T05:54:23.067Z,51.20
2019-04-21T05:56:42.367Z,51.30
2019-04-21T05:59:15.234Z,51.30
2019-04-21T06:01:48.603Z,51.40
2019-04-21T06:04:26.510Z,51.50
2019-04-21T06:06:56.880Z,51.60
2019-04-21T06:09:32.081Z,51.80
2019-04-21T06:11:55.613Z,51.90
2019-04-21T06:14:29.399Z,51.60
2019-04-21T06:17:01.683Z,51.50
2019-04-21T06:19:36.961Z,51.70
2019-04-21T06:21:57.150Z,51.10
2019-04-21T06:24:40.724Z,51.50
2019-04-21T06:27:22.687Z,51.60
2019-04-21T06:29:28.625Z,51.70
2019-04-21T06:32:37.439Z,51.80
2019-04-21T06:34:49.539Z,51.90
2019-04-21T06:37:40.212Z,52.20
2019-04-21T06:40:11.819Z,52.10
2019-04-21T06:42:21.236Z,52.00
2019-04-21T06:44:57.500Z,51.80
2019-04-21T06:47:39.176Z,51.80
2019-04-21T06:50:00.475Z,51.70
2019-04-21T06:52:47.700Z,51.70
2019-04-21T06:57:35.492Z,51.30
2019-04-21T07:00:04.344Z,51.30
2019-04-21T07:02:42.264Z,62.70
2019-04-21T07:05:07.912Z,61.80
2019-04-21T07:07:52.121Z,62.10
2019-04-21T07:10:12.257Z,59.20
2019-04-21T07:12:43.078Z,58.90
2019-04-21T07:15:11.334Z,58.40
2019-04-21T07:17:46.936Z,58.20
2019-04-21T07:20:18.907Z,57.80
2019-04-21T07:22:48.050Z,57.80
2019-04-21T07:25:22.585Z,57.70
2019-04-21T07:27:52.413Z,57.60
2019-04-21T07:30:25.590Z,57.70
2019-04-21T07:33:09.257Z,57.60
2019-04-21T07:35:24.905Z,57.40
2019-04-21T07:37:57.644Z,51.10
2019-04-21T07:40:24.879Z,51.00
2019-04-21T07:42:51.439Z,50.90
2019-04-21T07:45:26.291Z,50.70
2019-04-21T07:48:11.313Z,50.70
2019-04-21T07:50:55.418Z,50.70
2019-04-21T07:53:36.766Z,50.70
2019-04-21T07:55:38.029Z,50.60
2019-04-21T07:58:26.527Z,55.60
2019-04-21T08:03:33.839Z,56.60
2019-04-21T08:06:02.334Z,56.90
2019-04-21T08:08:36.757Z,50.80
2019-04-21T08:11:07.734Z,56.80
2019-04-21T08:13:39.189Z,56.70
2019-04-21T08:16:12.782Z,57.20
2019-04-21T08:18:42.430Z,56.40
2019-04-21T08:21:17.801Z,56.60
2019-04-21T08:23:43.101Z,56.30
2019-04-21T08:26:33.707Z,56.50
2019-04-21T08:28:45.748Z,56.60
2019-04-21T08:31:30.786Z,56.10
2019-04-21T08:33:54.195Z,54.50
2019-04-21T08:36:24.564Z,53.40
2019-04-21T08:38:53.659Z,50.80
2019-04-21T08:43:55.023Z,50.20
2019-04-21T08:46:23.878Z,50.60
2019-04-21T08:48:57.950Z,50.80
2019-04-21T08:54:05.508Z,50.70
2019-04-21T08:56:52.656Z,50.70
2019-04-21T08:59:47.165Z,50.80
2019-04-21T09:02:29.499Z,50.80
2019-04-21T09:04:52.686Z,50.70
2019-04-21T09:09:57.843Z,50.60
2019-04-21T09:12:30.991Z,50.70
2019-04-21T09:15:01.238Z,50.60
2019-04-21T09:17:28.522Z,51.20
2019-04-21T09:22:35.844Z,50.70
2019-04-21T09:25:06.669Z,50.70
2019-04-21T09:27:36.735Z,50.80
2019-04-21T09:29:55.968Z,51.00
2019-04-21T09:32:26.789Z,50.80
2019-04-21T09:34:53.520Z,50.80
2019-04-21T09:37:32.909Z,50.90
2019-04-21T09:39:57.410Z,51.00
2019-04-21T09:42:33.194Z,51.00
2019-04-21T09:45:02.347Z,51.10
2019-04-21T09:47:38.043Z,51.00
2019-04-21T09:50:03.041Z,51.00
2019-04-21T09:52:40.968Z,51.10
2019-04-21T09:55:10.255Z,51.20
2019-04-21T09:57:41.286Z,51.30
2019-04-21T10:00:13.159Z,51.40
2019-04-21T10:02:48.979Z,51.20
2019-04-21T10:05:23.084Z,51.10
2019-04-21T10:07:55.236Z,51.20
2019-04-21T10:10:25.255Z,51.20
2019-04-21T10:12:56.211Z,51.30
2019-04-21T10:15:27.858Z,51.50
2019-04-21T10:18:00.560Z,51.50
2019-04-21T10:20:30.895Z,51.40
2019-04-21T10:23:00.705Z,51.60
2019-04-21T10:25:30.690Z,51.60
2019-04-21T10:28:01.276Z,51.60
2019-04-21T10:30:31.195Z,51.60
2019-04-21T10:33:00.881Z,51.70
2019-04-21T10:35:31.045Z,51.80
2019-04-21T10:38:12.889Z,51.80
2019-04-21T10:40:35.242Z,51.70
2019-04-21T10:43:04.017Z,51.70
2019-04-21T10:45:34.802Z,51.70
2019-04-21T10:48:05.157Z,51.80
2019-04-21T10:50:34.946Z,51.70
2019-04-21T10:53:09.112Z,51.80
2019-04-21T10:55:54.313Z,51.70
2019-04-21T10:58:16.446Z,51.90
2019-04-21T11:00:48.319Z,52.20
2019-04-21T11:03:35.344Z,52.30
2019-04-21T11:06:06.559Z,52.70
2019-04-21T11:08:41.591Z,54.30
2019-04-21T11:11:08.241Z,54.50
2019-04-21T11:13:38.884Z,55.00
2019-04-21T11:16:08.940Z,54.90
2019-04-21T11:18:39.887Z,54.70
2019-04-21T11:21:10.815Z,54.70
2019-04-21T11:23:41.047Z,54.90
2019-04-21T11:26:12.005Z,54.80
2019-04-21T11:28:43.007Z,54.80
2019-04-21T11:31:13.307Z,54.50
2019-04-21T11:33:43.167Z,54.50
2019-04-21T11:36:13.364Z,54.40
2019-04-21T11:39:15.730Z,54.30
2019-04-21T11:41:34.039Z,54.80
2019-04-21T11:44:05.013Z,54.20
2019-04-21T11:46:36.186Z,54.10
2019-04-21T11:49:06.377Z,54.10
2019-04-21T11:51:37.299Z,54.00
2019-04-21T11:54:08.660Z,53.80
2019-04-21T11:56:38.939Z,53.70
2019-04-21T11:59:09.861Z,53.60
2019-04-21T12:01:39.782Z,53.50
2019-04-21T12:04:11.632Z,53.40
2019-04-21T12:06:46.532Z,53.40
2019-04-21T12:09:14.590Z,53.30
2019-04-21T12:11:45.378Z,53.10
2019-04-21T12:14:16.335Z,53.10
2019-04-21T12:16:47.025Z,53.00
2019-04-21T12:19:18.966Z,53.00
2019-04-21T12:22:02.858Z,52.90
2019-04-21T12:24:22.037Z,52.90
2019-04-21T12:26:53.880Z,52.90
2019-04-21T12:29:24.835Z,52.80
2019-04-21T12:32:16.194Z,52.80
2019-04-21T12:34:50.503Z,52.80
2019-04-21T12:37:19.717Z,52.70
2019-04-21T12:39:50.582Z,52.60
2019-04-21T12:42:20.979Z,52.60
2019-04-21T12:44:51.745Z,52.50
2019-04-21T12:47:22.070Z,52.40
2019-04-21T12:49:52.381Z,52.40
2019-04-21T12:52:24.576Z,52.30
2019-04-21T12:54:55.568Z,52.30
2019-04-21T12:57:25.551Z,52.30
2019-04-21T12:59:55.338Z,52.30
2019-04-21T13:02:25.411Z,52.20
2019-04-21T13:04:55.876Z,52.30
2019-04-21T13:07:25.911Z,52.20
2019-04-21T13:09:55.705Z,52.10
2019-04-21T13:12:25.421Z,52.00
2019-04-21T13:14:57.473Z,52.00
2019-04-21T13:17:27.781Z,52.00
2019-04-21T13:19:58.979Z,52.00
2019-04-21T13:22:29.990Z,51.90
2019-04-21T13:25:00.070Z,51.90
2019-04-21T13:27:31.828Z,51.80
2019-04-21T13:30:02.236Z,52.10
2019-04-21T13:32:33.189Z,51.90
2019-04-21T13:35:03.338Z,51.80
2019-04-21T13:37:33.411Z,51.90
2019-04-21T13:40:53.020Z,51.80
2019-04-21T13:43:10.684Z,51.80
2019-04-21T13:45:41.565Z,51.80
2019-04-21T13:48:12.769Z,51.80
2019-04-21T13:50:49.089Z,51.70
2019-04-21T13:53:18.885Z,51.70
2019-04-21T13:55:48.686Z,51.60
2019-04-21T13:58:18.373Z,51.60
2019-04-21T14:00:50.379Z,51.60
2019-04-21T14:03:21.774Z,51.60
2019-04-21T14:05:50.767Z,51.60
2019-04-21T14:08:21.118Z,51.50
2019-04-21T14:10:51.517Z,51.50
2019-04-21T14:13:22.526Z,51.40
2019-04-21T14:15:53.763Z,51.40
2019-04-21T14:18:24.709Z,51.40
2019-04-21T14:20:55.426Z,51.60
2019-04-21T14:23:32.450Z,51.40
2019-04-21T14:25:57.507Z,51.30
2019-04-21T14:28:28.258Z,51.30
2019-04-21T14:30:58.640Z,51.40
2019-04-21T14:33:29.781Z,51.30
2019-04-21T14:36:00.978Z,51.30
2019-04-21T14:38:32.129Z,51.30
2019-04-21T14:41:02.263Z,51.20
2019-04-21T14:43:32.123Z,51.20
2019-04-21T14:46:11.067Z,51.20
2019-04-21T14:48:59.252Z,51.20
2019-04-21T14:51:54.814Z,51.10
2019-04-21T14:54:44.575Z,51.10
2019-04-21T14:57:15.555Z,51.10
2019-04-21T14:59:45.306Z,51.10
2019-04-21T15:02:16.056Z,51.10
2019-04-21T15:04:45.997Z,51.10
2019-04-21T15:07:17.034Z,51.00
2019-04-21T15:09:53.702Z,51.00
2019-04-21T15:12:20.079Z,51.00
2019-04-21T15:14:49.991Z,50.90
2019-04-21T15:17:22.452Z,50.90
2019-04-21T15:19:59.769Z,50.90
2019-04-21T15:22:22.373Z,50.90
2019-04-21T15:24:52.174Z,51.00
2019-04-21T15:27:23.046Z,51.00
2019-04-21T15:29:53.077Z,51.00
2019-04-21T15:32:22.761Z,51.10
2019-04-21T15:34:52.444Z,51.10
2019-04-21T15:37:22.180Z,51.10
2019-04-21T15:39:53.044Z,51.10
2019-04-21T15:42:24.254Z,51.10
2019-04-21T15:44:56.699Z,51.10
2019-04-21T15:47:27.949Z,51.10
2019-04-21T15:50:04.660Z,51.20
2019-04-21T15:52:30.018Z,51.20
2019-04-21T15:55:06.589Z,51.20
2019-04-21T15:58:10.568Z,51.20
2019-04-21T16:01:00.717Z,51.20
2019-04-21T16:03:31.111Z,51.20
2019-04-21T16:06:01.369Z,51.20
2019-04-21T16:08:31.261Z,51.20
2019-04-21T16:11:04.558Z,51.20
2019-04-21T16:13:33.988Z,51.30
2019-04-21T16:16:06.262Z,51.30
2019-04-21T16:18:38.237Z,51.30
2019-04-21T16:21:08.324Z,51.40
2019-04-21T16:23:38.335Z,51.40
2019-04-21T16:26:08.787Z,51.30
2019-04-21T16:28:39.486Z,51.20
2019-04-21T16:31:10.153Z,51.30
2019-04-21T16:33:41.055Z,51.40
2019-04-21T16:36:13.122Z,51.40
2019-04-21T16:38:42.215Z,51.30
2019-04-21T16:41:12.144Z,51.40
2019-04-21T16:43:43.031Z,51.40
2019-04-21T16:46:13.638Z,51.50
2019-04-21T16:48:44.123Z,51.50
2019-04-21T16:51:15.104Z,51.60
2019-04-21T16:54:23.998Z,51.50
2019-04-21T16:57:19.879Z,51.50
2019-04-21T16:59:56.525Z,51.60
2019-04-21T17:02:26.550Z,51.60
2019-04-21T17:04:56.337Z,51.50
2019-04-21T17:07:26.315Z,51.50
2019-04-21T17:10:15.344Z,51.60
2019-04-21T17:12:45.659Z,51.60
2019-04-21T17:15:32.589Z,51.70
2019-04-21T17:18:05.652Z,51.60
2019-04-21T17:20:34.185Z,51.70
2019-04-21T17:22:51.621Z,51.70
2019-04-21T17:25:24.307Z,51.70
2019-04-21T17:27:53.263Z,51.60
2019-04-21T17:30:24.320Z,51.70
2019-04-21T17:32:55.378Z,51.80
2019-04-21T17:35:25.290Z,51.80
2019-04-21T17:37:56.181Z,51.80
2019-04-21T17:40:26.496Z,51.70
2019-04-21T17:43:02.014Z,51.80
2019-04-21T17:45:28.903Z,51.80
2019-04-21T17:48:03.191Z,51.80
2019-04-21T17:50:59.285Z,51.70
2019-04-21T17:53:44.875Z,51.80
2019-04-21T17:56:31.737Z,51.80
2019-04-21T17:58:58.521Z,51.90
2019-04-21T18:01:35.877Z,51.80
2019-04-21T18:04:10.910Z,51.90
2019-04-21T18:07:05.145Z,51.80
2019-04-21T18:09:51.743Z,51.90
2019-04-21T18:12:10.778Z,52.00
2019-04-21T18:14:28.393Z,52.20
2019-04-21T18:16:58.367Z,52.10
2019-04-21T18:19:32.410Z,52.70
2019-04-21T18:22:35.820Z,52.30
2019-04-21T18:25:06.737Z,52.50
2019-04-21T18:27:34.454Z,52.80
2019-04-21T18:30:08.370Z,53.60
2019-04-21T18:32:41.076Z,55.00
2019-04-21T18:35:29.286Z,55.40
2019-04-21T18:38:26.085Z,55.60
2019-04-21T18:40:52.833Z,57.00
2019-04-21T18:44:10.436Z,57.70
2019-04-21T18:46:40.019Z,57.90
2019-04-21T18:49:04.600Z,57.70
2019-04-21T18:52:02.508Z,57.20
2019-04-21T18:54:47.322Z,57.10
2019-04-21T18:57:07.883Z,56.70
2019-04-21T18:59:36.127Z,56.40
2019-04-21T19:02:06.356Z,56.20
2019-04-21T19:04:35.207Z,56.00
2019-04-21T19:07:18.020Z,55.70
2019-04-21T19:10:10.024Z,55.60
2019-04-21T19:12:31.916Z,55.60
2019-04-21T19:14:55.105Z,55.80
2019-04-21T19:20:07.661Z,55.80
2019-04-21T19:22:32.848Z,55.90
2019-04-21T19:25:04.804Z,55.90
2019-04-21T19:27:31.049Z,55.90
2019-04-21T19:32:34.580Z,55.90
2019-04-21T19:34:54.917Z,55.90
2019-04-21T19:37:25.865Z,55.90
2019-04-21T19:40:05.794Z,55.80
2019-04-21T19:42:35.503Z,55.70
2019-04-21T19:45:12.323Z,55.70
2019-04-21T19:47:48.677Z,55.60
2019-04-21T19:50:19.487Z,55.60
2019-04-21T19:52:39.991Z,55.50
2019-04-21T19:55:02.519Z,55.40
2019-04-21T19:57:32.380Z,55.40
2019-04-21T20:00:05.797Z,55.40
2019-04-21T20:02:34.366Z,55.50
2019-04-21T20:05:10.782Z,55.30
2019-04-21T20:07:49.181Z,55.20
2019-04-21T20:10:27.020Z,55.40
2019-04-21T20:12:56.999Z,55.60
2019-04-21T20:15:36.073Z,55.50
2019-04-21T20:17:58.568Z,55.30
2019-04-21T20:20:17.230Z,55.20
2019-04-21T20:22:51.868Z,55.00
2019-04-21T20:25:23.281Z,55.10
2019-04-21T20:28:05.236Z,54.80
2019-04-21T20:30:49.067Z,54.90
2019-04-21T20:33:42.833Z,54.70
2019-04-21T20:35:59.423Z,54.60
2019-04-21T20:38:19.369Z,54.70
2019-04-21T20:40:45.036Z,54.60
2019-04-21T20:43:30.696Z,54.40
2019-04-21T20:48:25.240Z,54.50
2019-04-21T20:51:01.956Z,54.40
2019-04-21T20:53:32.737Z,54.40
2019-04-21T20:55:59.199Z,54.30
2019-04-21T20:58:34.600Z,54.30
2019-04-21T21:03:42.273Z,54.10
2019-04-21T21:06:08.120Z,54.10
2019-04-21T21:08:45.384Z,54.10
2019-04-21T21:11:08.214Z,54.00
2019-04-21T21:14:07.399Z,54.00
2019-04-21T21:16:46.304Z,53.90
2019-04-21T21:19:17.105Z,53.90
2019-04-21T21:21:38.293Z,53.80
2019-04-21T21:24:12.678Z,53.70
2019-04-21T21:26:43.919Z,53.60
2019-04-21T21:29:18.364Z,53.60
2019-04-21T21:31:50.657Z,53.60
2019-04-21T21:34:21.402Z,53.50
2019-04-21T21:36:51.126Z,53.40
2019-04-21T21:39:15.589Z,53.40
2019-04-21T21:41:40.621Z,53.30
2019-04-21T21:44:09.199Z,53.30
2019-04-21T21:46:48.500Z,53.20
2019-04-21T21:49:23.677Z,53.20
2019-04-21T21:51:52.696Z,53.20
2019-04-21T21:54:09.885Z,53.10
2019-04-21T21:56:40.644Z,53.00
2019-04-21T21:59:16.483Z,53.20
2019-04-21T22:01:47.169Z,53.00
2019-04-21T22:04:20.842Z,52.90
2019-04-21T22:06:50.687Z,52.90
2019-04-21T22:09:16.617Z,52.90
2019-04-21T22:11:49.573Z,52.80
2019-04-21T22:14:25.896Z,52.80
2019-04-21T22:17:07.505Z,52.70
2019-04-21T22:19:48.902Z,52.70
2019-04-21T22:22:11.745Z,52.60
2019-04-21T22:24:39.922Z,52.60
2019-04-21T22:26:54.853Z,52.60
2019-04-21T22:29:27.863Z,52.70
2019-04-21T22:32:04.219Z,52.60
2019-04-21T22:34:32.700Z,52.60
2019-04-21T22:37:16.664Z,52.50
2019-04-21T22:39:51.621Z,52.50
2019-04-21T22:42:11.167Z,52.40
2019-04-21T22:44:32.709Z,52.50
2019-04-21T22:47:11.432Z,52.40
2019-04-21T22:49:34.882Z,52.50
2019-04-21T22:52:11.277Z,52.40
2019-04-21T22:54:40.826Z,52.40
2019-04-21T22:57:12.935Z,52.40
2019-04-21T22:59:38.560Z,52.50
2019-04-21T23:02:15.249Z,52.40
2019-04-21T23:04:43.740Z,52.40
2019-04-21T23:07:15.445Z,52.40
2019-04-21T23:09:43.210Z,52.30
2019-04-21T23:12:22.836Z,52.30
2019-04-21T23:14:53.434Z,52.30
2019-04-21T23:17:33.928Z,52.30
2019-04-21T23:20:09.962Z,52.30
2019-04-21T23:22:48.840Z,52.30
2019-04-21T23:25:08.778Z,52.30
2019-04-21T23:27:42.586Z,52.30
2019-04-21T23:30:19.971Z,52.30
2019-04-21T23:32:36.058Z,52.30
2019-04-21T23:34:56.137Z,52.30
2019-04-21T23:37:27.807Z,52.20
2019-04-21T23:40:04.400Z,52.30
2019-04-21T23:42:34.561Z,52.20
2019-04-21T23:45:02.922Z,52.20
2019-04-21T23:47:42.797Z,52.20
2019-04-21T23:50:19.522Z,52.10
2019-04-21T23:52:35.337Z,52.20
2019-04-21T23:55:05.616Z,52.10
2019-04-21T23:57:40.763Z,52.10
